Time;durP1;ratioP1;P1;durP2;ratioP2;P2;SDS_P1;SDS_P2;PMS_P1;PMS_P2;Temp;Humidity;BMP_temperature;BMP_pressure;BME280_temperature;BME280_humidity;BME280_pressure;Samples;Min_cycle;Max_cycle;Signal;HPM_P1;HPM_P2
2023/08/09 00:01:17;;;;;;;2.55;1.80;;;;;;;14.46;100.00;101153.22;5007921;28;20038;-68
2023/08/09 00:03:43;;;;;;;2.00;1.80;;;;;;;14.47;100.00;101154.09;5006873;28;20486;-68
2023/08/09 00:06:08;;;;;;;2.15;1.58;;;;;;;14.46;100.00;101153.22;5008209;28;20048;-69
2023/08/09 00:08:34;;;;;;;2.50;1.88;;;;;;;14.46;100.00;101149.63;5014401;28;20080;-68
2023/08/09 00:10:59;;;;;;;2.40;1.70;;;;;;;14.45;100.00;101158.81;5027354;28;20041;-68
2023/08/09 00:13:25;;;;;;;2.92;1.73;;;;;;;14.43;100.00;101156.22;5020347;28;20034;-69
2023/08/09 00:15:51;;;;;;;2.03;1.70;;;;;;;14.46;100.00;101157.84;5007647;28;20025;-69
2023/08/09 00:18:16;;;;;;;3.05;1.77;;;;;;;14.47;100.00;101159.56;5008226;28;20040;-69
2023/08/09 00:20:41;;;;;;;1.60;1.50;;;;;;;14.47;100.00;101160.44;5007863;28;20108;-69
2023/08/09 00:23:07;;;;;;;1.63;1.20;;;;;;;14.51;100.00;101158.34;5006297;28;20041;-69
2023/08/09 00:25:33;;;;;;;3.35;1.60;;;;;;;14.49;100.00;101158.47;5008661;28;20088;-69
2023/08/09 00:27:59;;;;;;;4.85;1.70;;;;;;;14.46;100.00;101155.09;5007021;28;20065;-69
2023/08/09 00:30:25;;;;;;;2.15;1.65;;;;;;;14.48;100.00;101159.47;5021083;28;20520;-69
2023/08/09 00:32:51;;;;;;;2.55;1.88;;;;;;;14.48;100.00;101153.13;5027829;28;20028;-68
2023/08/09 00:35:16;;;;;;;2.55;1.52;;;;;;;14.45;100.00;101159.69;5025859;28;20060;-69
2023/08/09 00:37:42;;;;;;;2.20;1.55;;;;;;;14.44;100.00;101149.72;5025266;28;20037;-70
2023/08/09 00:40:09;;;;;;;1.85;1.58;;;;;;;14.42;100.00;101148.13;5024566;28;20052;-69
2023/08/09 00:42:40;;;;;;;1.70;1.60;;;;;;;14.40;100.00;101148.25;5022697;28;20033;-70
2023/08/09 00:45:07;;;;;;;4.05;1.55;;;;;;;14.41;100.00;101157.31;5019021;28;20037;-70
2023/08/09 00:47:34;;;;;;;2.45;1.80;;;;;;;14.42;100.00;101165.44;5026203;28;20037;-69
2023/08/09 00:50:00;;;;;;;3.35;1.83;;;;;;;14.43;100.00;101169.91;5030800;28;20048;-69
2023/08/09 00:52:26;;;;;;;2.75;1.90;;;;;;;14.42;100.00;101165.44;5029835;28;20029;-69
2023/08/09 00:54:53;;;;;;;1.85;1.55;;;;;;;14.42;100.00;101164.56;5030981;28;20053;-69
2023/08/09 00:57:18;;;;;;;2.08;1.88;;;;;;;14.41;100.00;101162.78;5028094;28;20390;-70
2023/08/09 00:59:43;;;;;;;2.08;1.50;;;;;;;14.40;100.00;101169.28;5026705;28;20112;-70
2023/08/09 01:02:09;;;;;;;2.90;1.77;;;;;;;14.37;100.00;101175.91;5029911;28;20430;-70
2023/08/09 01:04:36;;;;;;;3.55;1.70;;;;;;;14.40;100.00;101182.97;5030372;28;20385;-69
2023/08/09 01:07:40;;;;;;;2.03;1.83;;;;;;;14.40;100.00;101174.75;5020310;28;20037;-69
2023/08/09 01:10:14;;;;;;;2.72;1.77;;;;;;;14.39;100.00;101173.03;5026275;28;20120;-69
2023/08/09 01:12:42;;;;;;;2.30;1.80;;;;;;;14.37;100.00;101170.41;5028814;28;20051;-69
2023/08/09 01:15:11;;;;;;;2.72;1.67;;;;;;;14.37;100.00;101172.28;5011165;28;20042;-69
2023/08/09 01:17:40;;;;;;;4.40;1.98;;;;;;;14.35;100.00;101185.22;5011384;28;20061;-70
2023/08/09 01:20:11;;;;;;;3.08;2.03;;;;;;;14.30;100.00;101177.38;5012083;28;20095;-70
2023/08/09 01:22:40;;;;;;;2.88;1.98;;;;;;;14.28;100.00;101179.38;5011290;28;20482;-71
2023/08/09 01:25:08;;;;;;;2.03;1.80;;;;;;;14.25;100.00;101172.28;5009961;28;20132;-70
2023/08/09 01:27:35;;;;;;;3.67;2.58;;;;;;;14.26;100.00;101171.28;5009430;28;20385;-70
2023/08/09 01:30:01;;;;;;;2.35;1.95;;;;;;;14.28;100.00;101171.19;5027909;28;20144;-70
2023/08/09 01:32:28;;;;;;;4.78;1.85;;;;;;;14.29;100.00;101172.91;5028816;28;20072;-69
2023/08/09 01:34:54;;;;;;;3.22;1.70;;;;;;;14.27;100.00;101177.66;5009227;28;20046;-69
2023/08/09 01:37:26;;;;;;;3.13;2.28;;;;;;;14.22;100.00;101185.34;5010629;28;20034;-70
2023/08/09 01:39:54;;;;;;;2.40;1.98;;;;;;;14.14;100.00;101171.44;5010424;28;20034;-70
2023/08/09 01:42:21;;;;;;;2.00;1.73;;;;;;;14.13;100.00;101180.63;5008967;28;20049;-70
2023/08/09 01:44:47;;;;;;;3.50;1.98;;;;;;;14.06;100.00;101185.75;5025558;28;20120;-70
2023/08/09 01:47:12;;;;;;;2.58;1.75;;;;;;;14.02;100.00;101187.84;5028846;28;20120;-70
2023/08/09 01:49:47;;;;;;;1.92;1.73;;;;;;;13.94;100.00;101187.63;5028484;28;20117;-70
2023/08/09 01:52:13;;;;;;;3.35;2.05;;;;;;;13.86;100.00;101183.78;5030221;28;20191;-70
2023/08/09 01:54:38;;;;;;;1.83;1.52;;;;;;;13.79;100.00;101194.31;5015631;28;20029;-70
2023/08/09 01:57:04;;;;;;;3.33;2.03;;;;;;;13.72;100.00;101195.81;5010524;28;20030;-70
2023/08/09 01:59:29;;;;;;;3.15;1.90;;;;;;;13.65;100.00;101189.97;5009372;28;20073;-69
2023/08/09 02:01:55;;;;;;;3.13;2.05;;;;;;;13.61;100.00;101191.19;5008827;28;20552;-69
2023/08/09 02:04:21;;;;;;;6.50;1.90;;;;;;;13.56;100.00;101193.41;5010094;28;20073;-70
2023/08/09 02:06:46;;;;;;;2.33;1.75;;;;;;;13.52;100.00;101200.13;5010192;28;20042;-70
2023/08/09 02:09:11;;;;;;;4.13;2.30;;;;;;;13.46;100.00;101206.94;5017883;28;20594;-70
2023/08/09 02:11:37;;;;;;;7.28;1.92;;;;;;;13.42;100.00;101199.97;5028318;28;20049;-70
2023/08/09 02:14:03;;;;;;;1.60;1.50;;;;;;;13.38;100.00;101201.25;5027244;28;20033;-70
2023/08/09 02:16:29;;;;;;;5.90;1.70;;;;;;;13.33;100.00;101200.69;5011485;28;20038;-69
2023/08/09 02:18:54;;;;;;;2.22;1.80;;;;;;;13.28;100.00;101206.53;5028752;28;20423;-70
2023/08/09 02:21:21;;;;;;;4.05;2.03;;;;;;;13.22;100.00;101207.00;5027316;28;20087;-70
2023/08/09 02:23:47;;;;;;;2.22;2.00;;;;;;;13.18;100.00;101208.22;5027917;28;20135;-70
2023/08/09 02:26:13;;;;;;;6.75;2.05;;;;;;;13.14;100.00;101208.56;5028762;28;20120;-70
2023/08/09 02:28:39;;;;;;;2.67;2.00;;;;;;;13.10;100.00;101207.91;5024871;28;20041;-70
2023/08/09 02:31:04;;;;;;;3.20;2.13;;;;;;;13.04;100.00;101213.88;5009872;28;20034;-70
2023/08/09 02:33:30;;;;;;;3.45;2.08;;;;;;;12.96;100.00;101203.56;5008459;28;20056;-69
2023/08/09 02:35:58;;;;;;;5.15;2.88;;;;;;;12.92;100.00;101214.81;5008438;28;20034;-70
2023/08/09 02:38:26;;;;;;;2.50;2.03;;;;;;;12.88;100.00;101224.25;5009376;28;20549;-70
2023/08/09 02:40:52;;;;;;;1.98;1.77;;;;;;;12.82;100.00;101227.41;5008726;28;20105;-70
2023/08/09 02:43:18;;;;;;;4.10;1.80;;;;;;;12.75;100.00;101237.94;5009410;28;20117;-70
2023/08/09 02:45:45;;;;;;;2.85;1.85;;;;;;;12.68;100.00;101228.44;5024831;28;20041;-70
2023/08/09 02:48:11;;;;;;;3.03;1.70;;;;;;;12.68;100.00;101239.38;5027775;28;20032;-70
2023/08/09 02:50:37;;;;;;;1.95;1.70;;;;;;;12.68;100.00;101233.91;5016327;28;20493;-70
2023/08/09 02:53:03;;;;;;;3.92;2.10;;;;;;;12.65;100.00;101240.50;5008282;28;20500;-70
2023/08/09 02:55:31;;;;;;;3.30;2.55;;;;;;;12.61;100.00;101241.69;4991610;28;20034;-70
2023/08/09 02:57:56;;;;;;;2.50;2.20;;;;;;;12.59;100.00;101246.41;5008912;28;20577;-70
2023/08/09 03:00:22;;;;;;;3.85;2.38;;;;;;;12.56;100.00;101252.09;5026350;28;20025;-69
2023/08/09 03:02:49;;;;;;;3.15;2.22;;;;;;;12.52;100.00;101248.72;5027610;28;20045;-69
2023/08/09 03:05:14;;;;;;;2.42;2.05;;;;;;;12.51;100.00;101252.44;5027192;28;20056;-70
2023/08/09 03:07:41;;;;;;;2.17;1.88;;;;;;;12.49;100.00;101248.94;5027655;28;20049;-70
2023/08/09 03:10:07;;;;;;;2.78;1.90;;;;;;;12.46;100.00;101256.50;5021937;28;20041;-72
2023/08/09 03:12:33;;;;;;;9.80;2.38;;;;;;;12.41;100.00;101255.97;5027830;28;20515;-73
2023/08/09 03:14:58;;;;;;;3.30;2.05;;;;;;;12.36;100.00;101258.16;5026065;28;20064;-69
2023/08/09 03:17:24;;;;;;;3.53;1.88;;;;;;;12.32;100.00;101262.97;5026314;28;20033;-71
2023/08/09 03:19:49;;;;;;;2.50;2.17;;;;;;;12.29;100.00;101252.25;5028516;28;20040;-70
2023/08/09 03:22:16;;;;;;;2.90;2.10;;;;;;;12.24;100.00;101258.06;5026234;28;20342;-70
2023/08/09 03:24:41;;;;;;;5.47;2.05;;;;;;;12.23;100.00;101253.59;5026455;28;20179;-70
2023/08/09 03:27:06;;;;;;;7.20;2.20;;;;;;;12.20;100.00;101253.81;5027313;28;20515;-70
2023/08/09 03:29:32;;;;;;;3.15;2.30;;;;;;;12.18;100.00;101260.38;5018612;28;20040;-70
2023/08/09 03:31:58;;;;;;;4.15;2.10;;;;;;;12.15;100.00;101263.31;5026728;28;20033;-69
2023/08/09 03:34:23;;;;;;;3.03;2.30;;;;;;;12.13;100.00;101259.84;5025559;28;20048;-70
2023/08/09 03:36:50;;;;;;;3.05;2.25;;;;;;;12.11;100.00;101259.06;5028000;28;20029;-70
2023/08/09 03:39:15;;;;;;;3.40;2.00;;;;;;;12.10;100.00;101263.66;5025343;28;20041;-70
2023/08/09 03:41:41;;;;;;;4.07;2.03;;;;;;;12.09;100.00;101274.69;5026104;28;20056;-70
2023/08/09 03:44:08;;;;;;;2.30;2.05;;;;;;;12.06;100.00;101281.22;5020540;28;20390;-70
2023/08/09 03:46:34;;;;;;;2.33;1.95;;;;;;;12.04;100.00;101293.22;5006867;28;20030;-70
2023/08/09 03:49:01;;;;;;;3.95;2.55;;;;;;;12.02;100.00;101289.72;5006724;28;20034;-70
2023/08/09 03:51:28;;;;;;;4.50;3.10;;;;;;;12.00;100.00;101287.09;5006432;28;20044;-70
2023/08/09 03:53:53;;;;;;;8.60;2.92;;;;;;;11.97;100.00;101288.19;5006896;28;20025;-70
2023/08/09 03:56:19;;;;;;;5.82;2.92;;;;;;;11.95;100.00;101295.63;5020215;28;20614;-70
2023/08/09 03:58:44;;;;;;;5.88;2.40;;;;;;;11.94;100.00;101301.19;5005022;28;20050;-70
2023/08/09 04:01:11;;;;;;;3.88;2.42;;;;;;;11.93;100.00;101304.88;5005919;28;20038;-70
2023/08/09 04:03:38;;;;;;;4.05;2.30;;;;;;;11.92;100.00;101306.72;5007000;28;20046;-70
2023/08/09 04:06:03;;;;;;;4.20;2.20;;;;;;;11.89;100.00;101306.06;5006803;28;20053;-70
2023/08/09 04:08:30;;;;;;;2.75;2.28;;;;;;;11.89;100.00;101306.06;5008110;28;20032;-70
2023/08/09 04:10:55;;;;;;;2.50;2.30;;;;;;;11.87;100.00;101303.47;5025250;28;20529;-70
2023/08/09 04:13:21;;;;;;;2.20;2.00;;;;;;;11.86;100.00;101314.47;5020839;28;20110;-70
2023/08/09 04:15:47;;;;;;;2.38;2.13;;;;;;;11.83;100.00;101309.25;5006537;28;20033;-70
2023/08/09 04:18:14;;;;;;;2.97;2.40;;;;;;;11.83;100.00;101310.09;5019946;28;20029;-70
2023/08/09 04:20:40;;;;;;;4.43;2.22;;;;;;;11.83;100.00;101315.56;5007278;28;20042;-70
2023/08/09 04:23:06;;;;;;;4.45;2.28;;;;;;;11.84;100.00;101321.88;5008183;28;20041;-70
2023/08/09 04:25:32;;;;;;;3.03;1.98;;;;;;;11.83;100.00;101312.84;5006647;28;20037;-70
2023/08/09 04:27:57;;;;;;;5.38;2.20;;;;;;;11.86;100.00;101318.09;5020242;28;20033;-70
2023/08/09 04:30:23;;;;;;;2.58;2.22;;;;;;;11.88;100.00;101309.78;5007427;28;20038;-70
2023/08/09 04:32:48;;;;;;;2.10;1.90;;;;;;;11.88;100.00;101316.09;5007448;28;20450;-70
2023/08/09 04:35:14;;;;;;;2.67;2.38;;;;;;;11.88;100.00;101321.56;5007593;28;20041;-70
2023/08/09 04:37:40;;;;;;;3.17;2.50;;;;;;;11.89;100.00;101311.53;5007301;28;20038;-70
2023/08/09 04:40:10;;;;;;;2.50;2.17;;;;;;;11.92;100.00;101317.63;5007595;28;20519;-70
2023/08/09 04:42:38;;;;;;;4.50;2.85;;;;;;;11.93;100.00;101322.09;5009955;28;20037;-70
2023/08/09 04:45:08;;;;;;;4.47;2.40;;;;;;;11.97;100.00;101323.63;5014383;28;20076;-70
2023/08/09 04:47:34;;;;;;;2.70;2.30;;;;;;;11.99;100.00;101329.88;5006751;28;20504;-70
2023/08/09 04:49:59;;;;;;;6.75;3.22;;;;;;;12.03;100.00;101330.53;5007211;28;20026;-70
2023/08/09 04:52:25;;;;;;;4.05;2.47;;;;;;;12.06;100.00;101329.44;5007106;28;20077;-70
2023/08/09 04:54:50;;;;;;;5.57;2.92;;;;;;;12.09;100.00;101332.81;5007873;28;20406;-70
2023/08/09 04:57:16;;;;;;;3.60;2.28;;;;;;;12.14;100.00;101340.69;5024875;28;20120;-70
2023/08/09 04:59:42;;;;;;;2.70;2.50;;;;;;;12.19;100.00;101335.75;5009647;28;20046;-70
2023/08/09 05:02:07;;;;;;;3.30;2.70;;;;;;;12.25;100.00;101330.72;5007313;28;20034;-70
2023/08/09 05:04:33;;;;;;;5.88;2.90;;;;;;;12.33;100.00;101341.09;5006863;28;20401;-70
2023/08/09 05:07:00;;;;;;;3.60;3.08;;;;;;;12.40;100.00;101334.22;5005951;28;20026;-70
2023/08/09 05:09:26;;;;;;;5.95;2.58;;;;;;;12.51;100.00;101342.50;5015937;28;20818;-70
2023/08/09 05:11:51;;;;;;;6.78;2.67;;;;;;;12.59;100.00;101343.78;5010182;28;20271;-70
2023/08/09 05:14:17;;;;;;;3.13;2.80;;;;;;;12.67;100.00;101344.09;5010759;28;20087;-70
2023/08/09 05:16:42;;;;;;;9.18;2.30;;;;;;;12.75;100.00;101349.88;5026390;28;20045;-70
2023/08/09 05:19:08;;;;;;;3.25;2.45;;;;;;;12.83;100.00;101344.72;5026951;28;20059;-70
2023/08/09 05:21:33;;;;;;;6.80;2.90;;;;;;;12.94;100.00;101344.78;5008962;28;20042;-70
2023/08/09 05:23:59;;;;;;;3.95;3.38;;;;;;;13.05;100.00;101346.72;5006946;28;20033;-69
2023/08/09 05:26:24;;;;;;;5.65;4.40;;;;;;;13.13;100.00;101352.47;5005966;28;20045;-70
2023/08/09 05:28:51;;;;;;;6.78;4.90;;;;;;;13.24;100.00;101354.44;5006286;28;20046;-70
2023/08/09 05:31:16;;;;;;;7.50;5.10;;;;;;;13.36;100.00;101364.44;5006368;28;20037;-70
2023/08/09 05:33:42;;;;;;;15.25;6.38;;;;;;;13.47;100.00;101359.03;5007492;28;20107;-70
2023/08/09 05:36:07;;;;;;;10.60;6.80;;;;;;;13.60;100.00;101361.69;5010367;28;20096;-70
2023/08/09 05:38:32;;;;;;;9.43;6.50;;;;;;;13.73;100.00;101362.50;5011248;28;20048;-70
2023/08/09 05:40:58;;;;;;;12.60;7.70;;;;;;;13.85;100.00;101363.41;5010070;28;20535;-70
2023/08/09 05:43:23;;;;;;;12.23;8.07;;;;;;;13.97;100.00;101365.19;5010509;28;20410;-70
2023/08/09 05:45:49;;;;;;;17.88;8.93;;;;;;;14.08;100.00;101371.66;5010009;28;20049;-70
2023/08/09 05:48:14;;;;;;;15.45;9.55;;;;;;;14.15;100.00;101370.19;5010284;28;20469;-69
2023/08/09 05:50:40;;;;;;;15.05;10.13;;;;;;;14.19;100.00;101369.84;5010777;28;20041;-70
2023/08/09 05:53:05;;;;;;;18.65;11.10;;;;;;;14.27;100.00;101371.97;5011060;28;20053;-70
2023/08/09 05:55:30;;;;;;;16.88;10.52;;;;;;;14.34;100.00;101377.81;5010549;28;20050;-70
2023/08/09 05:57:56;;;;;;;15.88;10.77;;;;;;;14.45;100.00;101377.81;5009812;28;20050;-70
2023/08/09 06:00:23;;;;;;;17.30;10.93;;;;;;;14.54;100.00;101371.63;5021883;28;20037;-70
2023/08/09 06:02:49;;;;;;;16.98;10.15;;;;;;;14.62;100.00;101374.63;5028287;28;20037;-70
2023/08/09 06:05:25;;;;;;;18.15;11.45;;;;;;;14.70;100.00;101382.25;5029780;28;20503;-69
2023/08/09 06:07:51;;;;;;;18.23;11.13;;;;;;;14.76;100.00;101388.06;5024672;28;20046;-70
2023/08/09 06:10:20;;;;;;;18.00;11.23;;;;;;;14.78;100.00;101399.81;5025767;28;20034;-70
2023/08/09 06:12:45;;;;;;;18.73;11.35;;;;;;;14.78;100.00;101397.06;5015985;28;20042;-70
2023/08/09 06:15:11;;;;;;;23.20;11.73;;;;;;;14.77;100.00;101403.50;5009568;28;20029;-70
2023/08/09 06:17:37;;;;;;;20.70;11.52;;;;;;;14.72;100.00;101407.63;5009847;28;20037;-70
2023/08/09 06:20:04;;;;;;;18.33;11.18;;;;;;;14.63;100.00;101409.22;5010533;28;20500;-69
2023/08/09 06:22:30;;;;;;;19.40;12.95;;;;;;;14.61;100.00;101418.59;5009741;28;20042;-70
2023/08/09 06:24:55;;;;;;;18.83;11.05;;;;;;;14.68;100.00;101433.50;5009295;28;20042;-69
2023/08/09 06:27:21;;;;;;;19.35;11.55;;;;;;;14.70;100.00;101426.94;5023450;28;20484;-69
2023/08/09 06:29:46;;;;;;;19.67;12.60;;;;;;;14.68;100.00;101430.78;5018297;28;20099;-69
2023/08/09 06:32:12;;;;;;;20.08;11.73;;;;;;;14.78;100.00;101423.56;5009719;28;20037;-69
2023/08/09 06:34:37;;;;;;;22.90;12.45;;;;;;;14.87;100.00;101424.69;5009671;28;20045;-70
2023/08/09 06:37:02;;;;;;;19.77;11.15;;;;;;;14.95;100.00;101428.53;5010662;28;20597;-69
2023/08/09 06:39:28;;;;;;;21.85;12.40;;;;;;;15.07;100.00;101432.16;5028950;28;20520;-70
2023/08/09 06:41:53;;;;;;;18.95;12.10;;;;;;;15.10;100.00;101426.41;5028802;28;20396;-69
2023/08/09 06:44:20;;;;;;;20.95;12.38;;;;;;;15.17;100.00;101426.78;5025287;28;20533;-69
2023/08/09 06:46:45;;;;;;;21.50;13.25;;;;;;;15.24;100.00;101426.13;5028010;28;20041;-69
2023/08/09 06:49:11;;;;;;;16.85;10.32;;;;;;;15.31;100.00;101430.13;5028839;28;20150;-69
2023/08/09 06:51:37;;;;;;;18.92;11.02;;;;;;;15.48;100.00;101433.31;5029005;28;20041;-70
2023/08/09 06:54:03;;;;;;;18.70;11.07;;;;;;;15.59;100.00;101446.16;5029504;28;20048;-69
2023/08/09 06:56:29;;;;;;;19.80;12.10;;;;;;;15.79;100.00;101450.84;5013977;28;20390;-69
2023/08/09 06:58:54;;;;;;;15.95;10.15;;;;;;;16.02;100.00;101448.88;5015488;28;20037;-70
2023/08/09 07:01:19;;;;;;;20.45;12.27;;;;;;;16.15;100.00;101455.06;5008468;28;20037;-69
2023/08/09 07:03:46;;;;;;;18.95;11.38;;;;;;;16.20;100.00;101454.66;5009043;28;20055;-69
2023/08/09 07:06:11;;;;;;;20.10;12.13;;;;;;;16.22;100.00;101460.88;5011628;28;20033;-69
2023/08/09 07:08:37;;;;;;;20.63;11.27;;;;;;;16.22;99.18;101469.13;5028091;28;20026;-69
2023/08/09 07:11:03;;;;;;;16.08;10.20;;;;;;;16.37;99.96;101458.69;5028504;28;20033;-69
2023/08/09 07:13:28;;;;;;;18.25;10.75;;;;;;;16.51;100.00;101466.63;5022176;28;20034;-69
2023/08/09 07:15:55;;;;;;;17.90;11.63;;;;;;;16.49;98.70;101463.97;5008528;28;20064;-69
2023/08/09 07:18:20;;;;;;;19.67;11.50;;;;;;;16.52;98.85;101473.84;5016532;28;20353;-69
2023/08/09 07:20:46;;;;;;;15.20;10.55;;;;;;;16.53;99.57;101473.69;5027187;28;20037;-69
2023/08/09 07:23:11;;;;;;;16.27;10.90;;;;;;;16.57;98.56;101455.94;5011223;28;20033;-68
2023/08/09 07:25:37;;;;;;;15.73;10.32;;;;;;;16.64;99.09;101464.50;5008443;28;20128;-70
2023/08/09 07:28:03;;;;;;;16.80;10.30;;;;;;;16.73;97.90;101473.84;5007114;28;20025;-69
2023/08/09 07:30:28;;;;;;;14.38;9.35;;;;;;;16.93;97.75;101470.22;5008384;28;20033;-69
2023/08/09 07:32:54;;;;;;;18.60;10.27;;;;;;;17.06;98.93;101468.09;5008430;28;20419;-69
2023/08/09 07:35:19;;;;;;;17.08;10.77;;;;;;;17.23;97.52;101468.44;5008077;28;20029;-69
2023/08/09 07:37:46;;;;;;;16.83;10.57;;;;;;;17.24;97.50;101479.31;5008015;28;20026;-69
2023/08/09 07:40:13;;;;;;;16.00;9.52;;;;;;;17.36;95.90;101474.59;5027281;28;20076;-69
2023/08/09 07:42:39;;;;;;;14.50;10.13;;;;;;;17.52;97.06;101474.91;5027406;28;20481;-69
2023/08/09 07:45:05;;;;;;;17.77;10.77;;;;;;;17.64;96.69;101483.06;5008967;28;20121;-70
2023/08/09 07:47:30;;;;;;;15.32;9.98;;;;;;;17.64;95.23;101483.06;5006598;28;20054;-70
2023/08/09 07:49:56;;;;;;;17.52;11.20;;;;;;;17.69;95.21;101486.25;5008489;28;20096;-69
2023/08/09 07:52:21;;;;;;;14.27;9.75;;;;;;;17.66;91.46;101484.63;5027698;28;20561;-70
2023/08/09 07:54:47;;;;;;;13.93;9.45;;;;;;;17.69;93.88;101489.00;5026004;28;20190;-69
2023/08/09 07:57:12;;;;;;;15.00;9.82;;;;;;;17.71;93.19;101489.72;5026691;28;20088;-69
2023/08/09 07:59:38;;;;;;;15.07;10.25;;;;;;;17.72;93.09;101500.63;5023927;28;20038;-70
2023/08/09 08:02:04;;;;;;;16.58;9.90;;;;;;;17.84;94.14;101505.00;5013781;28;20397;-70
2023/08/09 08:04:30;;;;;;;13.63;10.27;;;;;;;17.90;92.14;101500.78;5007822;28;20482;-69
2023/08/09 08:06:55;;;;;;;14.30;10.23;;;;;;;17.87;92.02;101495.59;5007801;28;20461;-70
2023/08/09 08:09:21;;;;;;;16.52;9.70;;;;;;;17.77;91.03;101505.72;5011242;28;20059;-69
2023/08/09 08:11:47;;;;;;;16.40;10.55;;;;;;;17.66;91.23;101506.66;5007478;28;20018;-69
2023/08/09 08:14:12;;;;;;;15.85;10.65;;;;;;;17.56;92.51;101514.88;5013882;28;20072;-70
2023/08/09 08:16:37;;;;;;;15.70;10.88;;;;;;;17.55;93.19;101502.16;5007349;28;20125;-70
2023/08/09 08:19:03;;;;;;;15.57;9.60;;;;;;;17.93;94.42;101508.78;5008240;28;20109;-69
2023/08/09 08:21:29;;;;;;;14.77;9.25;;;;;;;18.19;93.57;101509.09;5008485;28;20046;-70
2023/08/09 08:23:56;;;;;;;14.90;9.48;;;;;;;18.38;93.55;101510.13;5027131;28;20029;-70
2023/08/09 08:26:22;;;;;;;15.20;8.80;;;;;;;18.66;92.75;101517.50;5021922;28;20042;-70
2023/08/09 08:28:47;;;;;;;13.80;9.50;;;;;;;19.05;90.74;101514.66;5013597;28;20041;-70
2023/08/09 08:31:14;;;;;;;13.07;9.80;;;;;;;19.43;89.15;101518.28;5006781;28;20140;-70
2023/08/09 08:33:45;;;;;;;12.90;9.57;;;;;;;19.80;83.88;101521.03;5007361;28;20046;-70
2023/08/09 08:36:10;;;;;;;13.27;9.02;;;;;;;20.17;84.19;101526.44;5014913;28;20047;-70
2023/08/09 08:38:36;;;;;;;14.82;10.45;;;;;;;20.34;84.65;101520.06;5027667;28;20021;-70
2023/08/09 08:41:01;;;;;;;12.20;9.52;;;;;;;20.35;81.40;101515.41;5024986;28;20418;-70
2023/08/09 08:43:27;;;;;;;14.88;10.27;;;;;;;20.49;83.41;101525.94;5020963;28;20057;-71
2023/08/09 08:45:53;;;;;;;13.82;10.15;;;;;;;20.77;80.62;101537.75;5006985;28;20042;-70
2023/08/09 08:48:19;;;;;;;12.32;8.95;;;;;;;21.01;81.96;101531.53;5005780;28;20030;-70
2023/08/09 08:50:46;;;;;;;15.05;10.35;;;;;;;20.99;80.02;101539.13;5006941;28;20088;-71
2023/08/09 08:53:12;;;;;;;13.48;10.10;;;;;;;20.84;78.47;101544.38;5007140;28;20038;-70
2023/08/09 08:55:39;;;;;;;15.15;10.40;;;;;;;21.06;81.48;101542.97;5005331;28;20045;-71
2023/08/09 08:58:05;;;;;;;15.40;10.25;;;;;;;21.50;80.41;101537.41;5007105;28;20501;-70
2023/08/09 09:00:30;;;;;;;12.82;9.85;;;;;;;21.69;76.84;101540.94;5006745;28;20041;-69
2023/08/09 09:02:59;;;;;;;11.93;9.00;;;;;;;22.01;77.92;101543.81;5007072;28;20042;-69
2023/08/09 09:05:25;;;;;;;11.55;8.60;;;;;;;22.41;76.17;101545.81;5007018;28;20497;-69
2023/08/09 09:07:50;;;;;;;11.98;9.50;;;;;;;22.51;71.29;101540.09;5007167;28;20052;-71
2023/08/09 09:10:18;;;;;;;13.48;8.82;;;;;;;22.65;74.11;101547.75;5024900;28;20393;-70
2023/08/09 09:12:44;;;;;;;14.50;9.98;;;;;;;22.57;71.17;101547.75;5029635;28;20041;-69
2023/08/09 09:15:09;;;;;;;13.00;9.85;;;;;;;22.43;70.51;101545.69;5017403;28;20057;-70
2023/08/09 09:17:42;;;;;;;12.27;8.45;;;;;;;22.29;74.22;101549.97;5011278;28;20529;-70
2023/08/09 09:20:21;;;;;;;11.13;8.73;;;;;;;22.10;74.21;101556.66;5010567;28;20092;-70
2023/08/09 09:22:47;;;;;;;12.45;8.43;;;;;;;21.78;73.33;101560.19;5010315;28;20045;-70
2023/08/09 09:25:14;;;;;;;10.45;8.40;;;;;;;21.40;72.16;101558.78;5010342;28;20056;-70
2023/08/09 09:27:40;;;;;;;13.75;9.45;;;;;;;21.29;73.16;101573.72;5009668;28;20494;-70
2023/08/09 09:30:19;;;;;;;12.68;9.05;;;;;;;21.16;71.96;101565.00;5027212;28;20037;-69
2023/08/09 09:32:54;;;;;;;13.45;8.68;;;;;;;21.44;77.33;101565.72;5030159;28;20142;-70
2023/08/09 09:35:27;;;;;;;9.73;7.60;;;;;;;21.61;74.72;101569.44;5029825;28;20041;-70
2023/08/09 09:37:54;;;;;;;12.57;8.55;;;;;;;21.64;72.57;101570.00;5029846;28;20056;-70
2023/08/09 09:40:34;;;;;;;12.07;8.68;;;;;;;21.91;74.49;101568.00;5028505;28;20095;-70
2023/08/09 09:43:01;;;;;;;12.27;8.90;;;;;;;22.00;72.04;101566.13;5028005;28;20048;-70
2023/08/09 09:45:28;;;;;;;14.13;8.88;;;;;;;21.98;73.89;101554.38;5015644;28;20037;-70
2023/08/09 09:47:55;;;;;;;10.93;8.63;;;;;;;22.12;71.01;101564.84;5009809;28;20034;-70
2023/08/09 09:50:22;;;;;;;11.85;8.75;;;;;;;22.29;70.44;101560.19;5010086;28;20042;-71
2023/08/09 09:52:49;;;;;;;9.50;8.10;;;;;;;22.50;71.63;101551.38;5010113;28;20100;-70
2023/08/09 09:55:16;;;;;;;12.13;8.65;;;;;;;22.79;69.95;101548.97;5009601;28;20392;-70
2023/08/09 09:57:42;;;;;;;13.50;9.27;;;;;;;22.89;68.82;101548.81;5007846;28;20465;-70
2023/08/09 10:00:11;;;;;;;13.57;9.02;;;;;;;22.98;70.21;101555.22;5016109;28;20041;-71
2023/08/09 10:02:47;;;;;;;10.50;8.75;;;;;;;22.97;69.43;101562.69;5010457;28;20062;-70
2023/08/09 10:05:35;;;;;;;14.38;9.43;;;;;;;23.01;69.83;101555.75;5009087;28;20075;-70
2023/08/09 10:08:04;;;;;;;13.07;9.32;;;;;;;22.87;67.23;101548.97;5009478;28;20041;-70
2023/08/09 10:10:30;;;;;;;12.93;9.48;;;;;;;22.76;69.60;101549.31;5027391;28;20033;-70
2023/08/09 10:12:56;;;;;;;12.43;10.45;;;;;;;22.64;66.58;101553.47;5015156;28;20482;-70
2023/08/09 10:15:29;;;;;;;11.80;9.10;;;;;;;22.66;69.08;101538.41;5009572;28;20041;-70
2023/08/09 10:18:02;;;;;;;13.75;9.88;;;;;;;22.76;68.67;101542.91;5008171;28;20109;-71
2023/08/09 10:20:29;;;;;;;14.27;9.48;;;;;;;22.58;67.11;101549.50;5009630;28;20389;-71
2023/08/09 10:22:58;;;;;;;11.60;9.70;;;;;;;22.42;68.51;101553.09;5009361;28;20398;-70
2023/08/09 10:25:44;;;;;;;10.80;9.48;;;;;;;22.70;69.99;101550.00;5009320;28;20049;-70
2023/08/09 10:28:09;;;;;;;13.63;9.27;;;;;;;23.12;70.90;101552.59;5009005;28;20095;-69
2023/08/09 10:30:44;;;;;;;11.23;7.30;;;;;;;23.49;69.65;101551.13;5022756;28;20492;-70
2023/08/09 10:33:09;;;;;;;11.85;9.52;;;;;;;23.83;62.75;101556.44;5029275;28;20132;-70
2023/08/09 10:35:45;;;;;;;10.52;9.30;;;;;;;23.95;66.87;101556.00;5029497;28;20029;-70
2023/08/09 10:38:13;;;;;;;10.32;7.55;;;;;;;24.15;64.14;101560.06;5024667;28;20038;-69
2023/08/09 10:40:41;;;;;;;11.02;6.82;;;;;;;24.53;63.58;101555.50;5008924;28;20025;-70
2023/08/09 10:43:08;;;;;;;8.55;5.80;;;;;;;24.68;60.53;101567.56;5009316;28;20046;-72
2023/08/09 10:45:33;;;;;;;7.30;5.75;;;;;;;24.76;61.20;101568.53;5009715;28;20030;-70
2023/08/09 10:48:28;;;;;;;6.13;5.53;;;;;;;24.81;62.47;101569.72;5009026;28;20088;-70
2023/08/09 10:51:21;;;;;;;5.88;5.07;;;;;;;24.68;61.76;101566.69;5008996;28;20068;-69
2023/08/09 10:53:49;;;;;;;;;;;;;;;24.79;63.48;101569.03;5022760;28;20050;-69
2023/08/09 10:56:47;;;;;;;7.40;5.28;;;;;;;24.38;60.91;101563.75;5043084;28;19958;-70
2023/08/09 10:59:24;;;;;;;7.32;5.97;;;;;;;24.22;62.75;101561.06;5002771;28;20068;-69
2023/08/09 11:01:51;;;;;;;6.93;5.57;;;;;;;24.33;62.55;101563.41;5028591;28;20099;-69
2023/08/09 11:04:17;;;;;;;7.90;5.57;;;;;;;24.27;61.03;101560.53;5028422;28;20044;-69
2023/08/09 11:06:45;;;;;;;6.53;4.78;;;;;;;24.04;58.05;101557.69;5028514;28;20033;-71
2023/08/09 11:09:13;;;;;;;5.57;4.43;;;;;;;23.97;62.26;101567.81;5027008;28;20430;-71
2023/08/09 11:11:41;;;;;;;4.63;4.22;;;;;;;23.83;58.32;101559.22;5028528;28;20053;-70
2023/08/09 11:14:08;;;;;;;5.20;4.05;;;;;;;23.92;62.65;101560.91;5018386;28;20136;-70